sensor_id;sensor_type;location;lat;lon;timestamp;pressure;altitude;pressure_sealevel;temperature;humidity
71735;BME280;59577;52.122;5.406;2023-03-01T00:01:13;103321.66;;;-1.35;81.56
71735;BME280;59577;52.122;5.406;2023-03-01T00:03:41;103325.34;;;-1.36;81.63
71735;BME280;59577;52.122;5.406;2023-03-01T00:06:08;103324.94;;;-1.40;81.73
71735;BME280;59577;52.122;5.406;2023-03-01T00:08:35;103329.66;;;-1.42;81.96
71735;BME280;59577;52.122;5.406;2023-03-01T00:13:41;103329.03;;;-1.44;82.35
71735;BME280;59577;52.122;5.406;2023-03-01T00:16:16;103328.63;;;-1.47;82.43
71735;BME280;59577;52.122;5.406;2023-03-01T00:18:43;103326.19;;;-1.49;82.67
71735;BME280;59577;52.122;5.406;2023-03-01T00:21:10;103328.44;;;-1.53;82.52
71735;BME280;59577;52.122;5.406;2023-03-01T00:23:37;103321.50;;;-1.54;83.04
71735;BME280;59577;52.122;5.406;2023-03-01T00:26:10;103318.47;;;-1.57;83.00
71735;BME280;59577;52.122;5.406;2023-03-01T00:28:38;103313.56;;;-1.60;83.56
71735;BME280;59577;52.122;5.406;2023-03-01T00:31:06;103316.22;;;-1.60;83.36
71735;BME280;59577;52.122;5.406;2023-03-01T00:33:33;103312.97;;;-1.62;83.22
71735;BME280;59577;52.122;5.406;2023-03-01T00:36:00;103309.69;;;-1.64;83.38
71735;BME280;59577;52.122;5.406;2023-03-01T00:38:27;103302.94;;;-1.67;83.23
71735;BME280;59577;52.122;5.406;2023-03-01T00:40:54;103311.94;;;-1.68;83.45
71735;BME280;59577;52.122;5.406;2023-03-01T00:43:21;103313.97;;;-1.70;83.31
71735;BME280;59577;52.122;5.406;2023-03-01T00:45:47;103309.06;;;-1.73;83.51
71735;BME280;59577;52.122;5.406;2023-03-01T00:48:14;103305.41;;;-1.72;83.75
71735;BME280;59577;52.122;5.406;2023-03-01T00:50:40;103317.22;;;-1.68;83.71
71735;BME280;59577;52.122;5.406;2023-03-01T00:53:07;103305.41;;;-1.65;83.65
71735;BME280;59577;52.122;5.406;2023-03-01T00:55:33;103312.75;;;-1.61;83.65
71735;BME280;59577;52.122;5.406;2023-03-01T00:58:00;103303.13;;;-1.62;83.63
71735;BME280;59577;52.122;5.406;2023-03-01T01:00:26;103302.34;;;-1.62;83.55
71735;BME280;59577;52.122;5.406;2023-03-01T01:02:53;103303.94;;;-1.61;83.53
71735;BME280;59577;52.122;5.406;2023-03-01T01:05:20;103298.03;;;-1.63;83.63
71735;BME280;59577;52.122;5.406;2023-03-01T01:07:47;103298.44;;;-1.66;83.57
71735;BME280;59577;52.122;5.406;2023-03-01T01:10:14;103297.84;;;-1.68;83.64
71735;BME280;59577;52.122;5.406;2023-03-01T01:12:45;103287.84;;;-1.73;83.57
71735;BME280;59577;52.122;5.406;2023-03-01T01:15:12;103286.22;;;-1.74;83.76
71735;BME280;59577;52.122;5.406;2023-03-01T01:17:40;103281.72;;;-1.80;83.66
71735;BME280;59577;52.122;5.406;2023-03-01T01:20:07;103282.38;;;-1.85;83.66
71735;BME280;59577;52.122;5.406;2023-03-01T01:22:34;103275.22;;;-1.91;83.91
71735;BME280;59577;52.122;5.406;2023-03-01T01:25:01;103277.25;;;-1.93;84.27
71735;BME280;59577;52.122;5.406;2023-03-01T01:27:29;103278.28;;;-1.94;84.27
71735;BME280;59577;52.122;5.406;2023-03-01T01:29:55;103269.09;;;-1.98;84.46
71735;BME280;59577;52.122;5.406;2023-03-01T01:32:22;103269.50;;;-2.01;84.40
71735;BME280;59577;52.122;5.406;2023-03-01T01:34:52;103260.94;;;-2.03;84.52
71735;BME280;59577;52.122;5.406;2023-03-01T01:37:18;103260.53;;;-2.07;84.61
71735;BME280;59577;52.122;5.406;2023-03-01T01:39:45;103261.97;;;-2.11;84.72
71735;BME280;59577;52.122;5.406;2023-03-01T01:42:18;103262.19;;;-2.13;84.60
71735;BME280;59577;52.122;5.406;2023-03-01T01:44:47;103268.09;;;-2.17;84.38
71735;BME280;59577;52.122;5.406;2023-03-01T01:47:18;103269.31;;;-2.20;84.81
71735;BME280;59577;52.122;5.406;2023-03-01T01:49:55;103263.59;;;-2.23;84.90
71735;BME280;59577;52.122;5.406;2023-03-01T01:52:29;103260.34;;;-2.25;85.14
71735;BME280;59577;52.122;5.406;2023-03-01T01:55:03;103260.13;;;-2.31;84.97
71735;BME280;59577;52.122;5.406;2023-03-01T01:57:34;103258.53;;;-2.32;84.91
71735;BME280;59577;52.122;5.406;2023-03-01T02:00:06;103266.28;;;-2.30;85.34
71735;BME280;59577;52.122;5.406;2023-03-01T02:02:33;103245.88;;;-2.30;85.56
71735;BME280;59577;52.122;5.406;2023-03-01T02:05:22;103246.06;;;-2.31;85.55
71735;BME280;59577;52.122;5.406;2023-03-01T02:07:52;103251.38;;;-2.31;85.48
71735;BME280;59577;52.122;5.406;2023-03-01T02:10:21;103248.31;;;-2.28;85.48
71735;BME280;59577;52.122;5.406;2023-03-01T02:12:49;103251.38;;;-2.24;85.61
71735;BME280;59577;52.122;5.406;2023-03-01T02:15:16;103251.78;;;-2.21;85.45
71735;BME280;59577;52.122;5.406;2023-03-01T02:17:43;103248.09;;;-2.20;85.74
71735;BME280;59577;52.122;5.406;2023-03-01T02:22:58;103239.72;;;-2.23;85.07
71735;BME280;59577;52.122;5.406;2023-03-01T02:30:47;103240.16;;;-2.27;85.60
71735;BME280;59577;52.122;5.406;2023-03-01T02:33:36;103233.41;;;-2.29;85.56
71735;BME280;59577;52.122;5.406;2023-03-01T02:36:06;103228.94;;;-2.35;85.27
71735;BME280;59577;52.122;5.406;2023-03-01T02:38:34;103230.34;;;-2.39;85.51
71735;BME280;59577;52.122;5.406;2023-03-01T02:41:02;103229.53;;;-2.40;85.61
71735;BME280;59577;52.122;5.406;2023-03-01T02:43:32;103226.28;;;-2.42;85.95
71735;BME280;59577;52.122;5.406;2023-03-01T02:46:05;103224.44;;;-2.48;85.84
71735;BME280;59577;52.122;5.406;2023-03-01T02:48:45;103216.88;;;-2.51;85.73
71735;BME280;59577;52.122;5.406;2023-03-01T02:54:17;103212.81;;;-2.60;85.60
71735;BME280;59577;52.122;5.406;2023-03-01T02:56:48;103214.66;;;-2.61;86.19
71735;BME280;59577;52.122;5.406;2023-03-01T02:59:18;103213.03;;;-2.62;86.15
71735;BME280;59577;52.122;5.406;2023-03-01T03:01:46;103220.16;;;-2.62;85.89
71735;BME280;59577;52.122;5.406;2023-03-01T03:04:17;103215.47;;;-2.67;85.90
71735;BME280;59577;52.122;5.406;2023-03-01T03:06:45;103217.69;;;-2.71;86.26
71735;BME280;59577;52.122;5.406;2023-03-01T03:09:12;103204.44;;;-2.71;86.08
71735;BME280;59577;52.122;5.406;2023-03-01T03:11:42;103205.44;;;-2.72;86.16
71735;BME280;59577;52.122;5.406;2023-03-01T03:14:13;103214.03;;;-2.70;86.07
71735;BME280;59577;52.122;5.406;2023-03-01T03:16:42;103206.09;;;-2.70;86.57
71735;BME280;59577;52.122;5.406;2023-03-01T03:19:10;103210.97;;;-2.80;86.22
71735;BME280;59577;52.122;5.406;2023-03-01T03:21:36;103211.75;;;-2.93;86.69
71735;BME280;59577;52.122;5.406;2023-03-01T03:24:03;103203.41;;;-2.90;86.50
71735;BME280;59577;52.122;5.406;2023-03-01T03:26:30;103196.25;;;-2.89;86.70
71735;BME280;59577;52.122;5.406;2023-03-01T03:28:57;103192.59;;;-2.88;87.20
71735;BME280;59577;52.122;5.406;2023-03-01T03:31:25;103197.72;;;-2.87;86.77
71735;BME280;59577;52.122;5.406;2023-03-01T03:33:51;103200.97;;;-2.85;87.00
71735;BME280;59577;52.122;5.406;2023-03-01T03:36:21;103198.13;;;-2.83;86.96
71735;BME280;59577;52.122;5.406;2023-03-01T03:38:48;103204.03;;;-2.81;86.97
71735;BME280;59577;52.122;5.406;2023-03-01T03:41:15;103193.44;;;-2.81;87.13
71735;BME280;59577;52.122;5.406;2023-03-01T03:43:43;103211.97;;;-2.81;86.94
71735;BME280;59577;52.122;5.406;2023-03-01T03:46:11;103206.66;;;-2.88;86.82
71735;BME280;59577;52.122;5.406;2023-03-01T03:48:39;103208.72;;;-2.90;87.17
71735;BME280;59577;52.122;5.406;2023-03-01T03:51:06;103196.47;;;-2.91;87.10
71735;BME280;59577;52.122;5.406;2023-03-01T03:53:35;103198.69;;;-2.94;86.93
71735;BME280;59577;52.122;5.406;2023-03-01T03:56:02;103191.38;;;-2.99;87.22
71735;BME280;59577;52.122;5.406;2023-03-01T03:58:31;103188.13;;;-3.01;87.00
71735;BME280;59577;52.122;5.406;2023-03-01T04:00:59;103178.94;;;-3.05;87.07
71735;BME280;59577;52.122;5.406;2023-03-01T04:03:27;103189.31;;;-3.10;87.20
71735;BME280;59577;52.122;5.406;2023-03-01T04:05:57;103196.84;;;-3.14;87.43
71735;BME280;59577;52.122;5.406;2023-03-01T04:08:24;103202.13;;;-3.21;87.26
71735;BME280;59577;52.122;5.406;2023-03-01T04:10:55;103198.66;;;-3.21;87.27
71735;BME280;59577;52.122;5.406;2023-03-01T04:13:23;103199.66;;;-3.22;87.56
71735;BME280;59577;52.122;5.406;2023-03-01T04:15:52;103197.22;;;-3.24;87.92
71735;BME280;59577;52.122;5.406;2023-03-01T04:18:21;103195.78;;;-3.26;87.59
71735;BME280;59577;52.122;5.406;2023-03-01T04:20:49;103201.09;;;-3.26;87.65
71735;BME280;59577;52.122;5.406;2023-03-01T04:23:19;103198.44;;;-3.26;87.68
71735;BME280;59577;52.122;5.406;2023-03-01T04:25:56;103201.28;;;-3.28;87.26
71735;BME280;59577;52.122;5.406;2023-03-01T04:28:43;103205.97;;;-3.30;87.37
71735;BME280;59577;52.122;5.406;2023-03-01T04:31:14;103200.88;;;-3.31;87.60
71735;BME280;59577;52.122;5.406;2023-03-01T04:33:51;103201.06;;;-3.33;87.80
71735;BME280;59577;52.122;5.406;2023-03-01T04:36:19;103203.91;;;-3.34;87.77
71735;BME280;59577;52.122;5.406;2023-03-01T04:38:47;103202.06;;;-3.41;87.84
71735;BME280;59577;52.122;5.406;2023-03-01T04:41:16;103198.41;;;-3.40;87.78
71735;BME280;59577;52.122;5.406;2023-03-01T04:43:42;103198.78;;;-3.43;87.63
71735;BME280;59577;52.122;5.406;2023-03-01T04:46:12;103195.31;;;-3.43;87.76
71735;BME280;59577;52.122;5.406;2023-03-01T04:48:42;103188.63;;;-3.46;87.73
71735;BME280;59577;52.122;5.406;2023-03-01T04:51:09;103181.88;;;-3.48;87.42
71735;BME280;59577;52.122;5.406;2023-03-01T04:53:36;103182.91;;;-3.49;87.58
71735;BME280;59577;52.122;5.406;2023-03-01T04:56:03;103173.94;;;-3.48;87.72
71735;BME280;59577;52.122;5.406;2023-03-01T04:58:30;103170.88;;;-3.45;87.43
71735;BME280;59577;52.122;5.406;2023-03-01T05:00:56;103169.88;;;-3.44;87.50
71735;BME280;59577;52.122;5.406;2023-03-01T05:03:23;103170.69;;;-3.44;87.26
71735;BME280;59577;52.122;5.406;2023-03-01T05:05:51;103163.16;;;-3.47;88.06
71735;BME280;59577;52.122;5.406;2023-03-01T05:08:18;103159.06;;;-3.49;87.31
71735;BME280;59577;52.122;5.406;2023-03-01T05:10:51;103153.78;;;-3.49;87.33
71735;BME280;59577;52.122;5.406;2023-03-01T05:13:19;103160.09;;;-3.50;87.50
71735;BME280;59577;52.122;5.406;2023-03-01T05:15:54;103154.19;;;-3.52;87.53
71735;BME280;59577;52.122;5.406;2023-03-01T05:18:22;103151.72;;;-3.54;87.81
71735;BME280;59577;52.122;5.406;2023-03-01T05:20:53;103150.28;;;-3.56;87.90
71735;BME280;59577;52.122;5.406;2023-03-01T05:23:22;103144.56;;;-3.60;87.91
71735;BME280;59577;52.122;5.406;2023-03-01T05:25:49;103137.66;;;-3.61;87.57
71735;BME280;59577;52.122;5.406;2023-03-01T05:28:19;103138.84;;;-3.64;87.49
71735;BME280;59577;52.122;5.406;2023-03-01T05:30:46;103132.13;;;-3.66;87.56
71735;BME280;59577;52.122;5.406;2023-03-01T05:33:12;103129.69;;;-3.68;87.56
71735;BME280;59577;52.122;5.406;2023-03-01T05:35:41;103130.06;;;-3.71;87.44
71735;BME280;59577;52.122;5.406;2023-03-01T05:38:12;103131.31;;;-3.73;87.53
71735;BME280;59577;52.122;5.406;2023-03-01T05:40:43;103124.16;;;-3.80;87.84
71735;BME280;59577;52.122;5.406;2023-03-01T05:43:11;103118.63;;;-3.85;87.36
71735;BME280;59577;52.122;5.406;2023-03-01T05:45:39;103111.06;;;-3.88;87.46
71735;BME280;59577;52.122;5.406;2023-03-01T05:48:07;103112.50;;;-3.92;87.27
71735;BME280;59577;52.122;5.406;2023-03-01T05:50:37;103113.50;;;-3.93;87.57
71735;BME280;59577;52.122;5.406;2023-03-01T05:53:13;103107.59;;;-3.95;87.82
71735;BME280;59577;52.122;5.406;2023-03-01T05:55:41;103112.66;;;-4.00;87.68
71735;BME280;59577;52.122;5.406;2023-03-01T05:58:11;103110.81;;;-4.06;87.63
71735;BME280;59577;52.122;5.406;2023-03-01T06:00:41;103109.59;;;-4.04;87.66
71735;BME280;59577;52.122;5.406;2023-03-01T06:03:10;103107.97;;;-4.05;87.86
71735;BME280;59577;52.122;5.406;2023-03-01T06:05:37;103106.75;;;-4.02;87.90
71735;BME280;59577;52.122;5.406;2023-03-01T06:08:03;103106.94;;;-4.04;88.00
71735;BME280;59577;52.122;5.406;2023-03-01T06:10:30;103104.50;;;-4.05;88.03
71735;BME280;59577;52.122;5.406;2023-03-01T06:12:56;103104.50;;;-4.05;87.80
71735;BME280;59577;52.122;5.406;2023-03-01T06:15:23;103110.81;;;-4.06;88.44
71735;BME280;59577;52.122;5.406;2023-03-01T06:17:50;103103.69;;;-4.06;88.44
71735;BME280;59577;52.122;5.406;2023-03-01T06:20:22;103115.91;;;-4.05;88.06
71735;BME280;59577;52.122;5.406;2023-03-01T06:22:49;103121.63;;;-4.01;88.23
71735;BME280;59577;52.122;5.406;2023-03-01T06:25:18;103111.84;;;-4.01;88.10
71735;BME280;59577;52.122;5.406;2023-03-01T06:27:46;103117.56;;;-3.97;87.89
71735;BME280;59577;52.122;5.406;2023-03-01T06:30:15;103116.97;;;-3.92;88.11
71735;BME280;59577;52.122;5.406;2023-03-01T06:32:42;103109.84;;;-3.92;87.81
71735;BME280;59577;52.122;5.406;2023-03-01T06:35:10;103114.94;;;-3.90;87.63
71735;BME280;59577;52.122;5.406;2023-03-01T06:37:37;103115.56;;;-3.88;88.05
71735;BME280;59577;52.122;5.406;2023-03-01T06:40:05;103119.44;;;-3.84;88.28
71735;BME280;59577;52.122;5.406;2023-03-01T06:42:39;103120.88;;;-3.82;88.04
71735;BME280;59577;52.122;5.406;2023-03-01T06:45:07;103116.00;;;-3.78;88.12
71735;BME280;59577;52.122;5.406;2023-03-01T06:47:34;103113.78;;;-3.74;88.12
71735;BME280;59577;52.122;5.406;2023-03-01T06:50:01;103121.34;;;-3.71;88.03
71735;BME280;59577;52.122;5.406;2023-03-01T06:52:28;103128.25;;;-3.70;87.54
71735;BME280;59577;52.122;5.406;2023-03-01T06:54:54;103116.47;;;-3.68;87.81
71735;BME280;59577;52.122;5.406;2023-03-01T06:57:21;103119.13;;;-3.61;87.65
71735;BME280;59577;52.122;5.406;2023-03-01T06:59:48;103115.06;;;-3.57;87.72
71735;BME280;59577;52.122;5.406;2023-03-01T07:02:14;103111.47;;;-3.16;88.58
71735;BME280;59577;52.122;5.406;2023-03-01T07:04:42;103105.06;;;-1.69;87.79
71735;BME280;59577;52.122;5.406;2023-03-01T07:07:09;103107.66;;;-2.08;86.53
71735;BME280;59577;52.122;5.406;2023-03-01T07:09:35;103096.59;;;-1.98;86.31
71735;BME280;59577;52.122;5.406;2023-03-01T07:12:02;103105.25;;;-1.07;85.85
71735;BME280;59577;52.122;5.406;2023-03-01T07:14:29;103112.78;;;0.02;84.53
71735;BME280;59577;52.122;5.406;2023-03-01T07:16:55;103109.44;;;1.97;81.71
71735;BME280;59577;52.122;5.406;2023-03-01T07:19:22;103107.31;;;1.58;77.81
71735;BME280;59577;52.122;5.406;2023-03-01T07:21:49;103110.13;;;2.33;77.89
71735;BME280;59577;52.122;5.406;2023-03-01T07:24:15;103101.72;;;4.90;74.20
71735;BME280;59577;52.122;5.406;2023-03-01T07:26:42;103101.81;;;8.10;65.32
71735;BME280;59577;52.122;5.406;2023-03-01T07:29:10;103098.28;;;9.67;58.73
71735;BME280;59577;52.122;5.406;2023-03-01T07:31:37;103098.25;;;11.41;53.58
71735;BME280;59577;52.122;5.406;2023-03-01T07:34:03;103105.50;;;9.95;51.35
71735;BME280;59577;52.122;5.406;2023-03-01T07:36:30;103112.34;;;8.12;53.91
71735;BME280;59577;52.122;5.406;2023-03-01T07:38:57;103112.03;;;8.19;54.23
71735;BME280;59577;52.122;5.406;2023-03-01T07:41:24;103112.66;;;8.00;53.77
71735;BME280;59577;52.122;5.406;2023-03-01T07:43:50;103115.28;;;8.60;53.94
71735;BME280;59577;52.122;5.406;2023-03-01T07:46:16;103118.88;;;6.94;54.68
71735;BME280;59577;52.122;5.406;2023-03-01T07:48:45;103117.44;;;6.15;57.20
71735;BME280;59577;52.122;5.406;2023-03-01T07:51:12;103121.50;;;7.51;58.27
71735;BME280;59577;52.122;5.406;2023-03-01T07:53:39;103117.63;;;9.55;55.03
71735;BME280;59577;52.122;5.406;2023-03-01T07:56:08;103114.16;;;9.73;52.98
71735;BME280;59577;52.122;5.406;2023-03-01T07:58:40;103114.00;;;9.65;52.15
71735;BME280;59577;52.122;5.406;2023-03-01T08:01:10;103117.00;;;10.25;52.00
71735;BME280;59577;52.122;5.406;2023-03-01T08:03:37;103114.41;;;11.19;51.10
71735;BME280;59577;52.122;5.406;2023-03-01T08:06:06;103114.72;;;13.13;48.43
71735;BME280;59577;52.122;5.406;2023-03-01T08:08:34;103107.16;;;15.16;45.09
71735;BME280;59577;52.122;5.406;2023-03-01T08:11:02;103108.72;;;16.07;42.51
71735;BME280;59577;52.122;5.406;2023-03-01T08:13:29;103103.78;;;16.00;41.70
71735;BME280;59577;52.122;5.406;2023-03-01T08:16:08;103108.19;;;15.33;41.86
71735;BME280;59577;52.122;5.406;2023-03-01T08:18:35;103103.13;;;14.66;43.45
71735;BME280;59577;52.122;5.406;2023-03-01T08:21:10;103108.09;;;14.38;43.51
71735;BME280;59577;52.122;5.406;2023-03-01T08:23:38;103103.91;;;14.67;43.46
71735;BME280;59577;52.122;5.406;2023-03-01T08:26:07;103103.25;;;15.86;40.26
71735;BME280;59577;52.122;5.406;2023-03-01T08:28:33;103094.19;;;15.64;40.39
71735;BME280;59577;52.122;5.406;2023-03-01T08:31:00;103100.53;;;15.17;41.19
71735;BME280;59577;52.122;5.406;2023-03-01T08:33:27;103100.94;;;13.41;42.39
71735;BME280;59577;52.122;5.406;2023-03-01T08:36:02;103102.56;;;11.98;44.21
71735;BME280;59577;52.122;5.406;2023-03-01T08:38:28;103099.56;;;11.72;44.86
71735;BME280;59577;52.122;5.406;2023-03-01T08:40:55;103097.84;;;12.71;44.06
71735;BME280;59577;52.122;5.406;2023-03-01T08:43:21;103090.41;;;13.57;41.74
71735;BME280;59577;52.122;5.406;2023-03-01T08:45:51;103091.22;;;13.58;41.97
71735;BME280;59577;52.122;5.406;2023-03-01T08:48:18;103081.34;;;14.23;40.45
71735;BME280;59577;52.122;5.406;2023-03-01T08:50:44;103083.09;;;14.19;40.49
71735;BME280;59577;52.122;5.406;2023-03-01T08:53:11;103086.31;;;14.12;39.94
71735;BME280;59577;52.122;5.406;2023-03-01T08:55:37;103077.50;;;14.24;41.07
71735;BME280;59577;52.122;5.406;2023-03-01T08:58:04;103077.56;;;13.40;39.51
71735;BME280;59577;52.122;5.406;2023-03-01T09:00:31;103077.47;;;11.64;40.08
71735;BME280;59577;52.122;5.406;2023-03-01T09:03:01;103074.63;;;11.00;41.67
71735;BME280;59577;52.122;5.406;2023-03-01T09:05:28;103077.47;;;11.64;40.88
71735;BME280;59577;52.122;5.406;2023-03-01T09:07:57;103071.81;;;10.91;41.31
71735;BME280;59577;52.122;5.406;2023-03-01T09:10:23;103066.81;;;10.52;42.30
71735;BME280;59577;52.122;5.406;2023-03-01T09:12:51;103071.13;;;10.15;42.70
71735;BME280;59577;52.122;5.406;2023-03-01T09:15:17;103067.72;;;9.23;43.13
71735;BME280;59577;52.122;5.406;2023-03-01T09:17:44;103064.16;;;9.28;44.37
71735;BME280;59577;52.122;5.406;2023-03-01T09:20:11;103061.50;;;9.47;44.01
71735;BME280;59577;52.122;5.406;2023-03-01T09:22:37;103056.66;;;9.87;44.53
71735;BME280;59577;52.122;5.406;2023-03-01T09:25:04;103058.28;;;11.05;43.76
71735;BME280;59577;52.122;5.406;2023-03-01T09:27:31;103040.63;;;12.00;41.46
71735;BME280;59577;52.122;5.406;2023-03-01T09:29:57;103037.44;;;12.74;40.38
71735;BME280;59577;52.122;5.406;2023-03-01T09:32:24;103039.22;;;13.85;37.82
71735;BME280;59577;52.122;5.406;2023-03-01T09:34:50;103030.72;;;14.13;36.35
71735;BME280;59577;52.122;5.406;2023-03-01T09:37:33;103032.78;;;14.90;35.39
71735;BME280;59577;52.122;5.406;2023-03-01T09:40:01;103021.53;;;15.81;35.28
71735;BME280;59577;52.122;5.406;2023-03-01T09:42:32;103027.72;;;16.11;33.07
71735;BME280;59577;52.122;5.406;2023-03-01T09:45:04;103026.97;;;16.35;32.86
71735;BME280;59577;52.122;5.406;2023-03-01T09:47:33;103023.97;;;16.61;31.40
71735;BME280;59577;52.122;5.406;2023-03-01T09:54:59;103021.13;;;13.89;34.84
71735;BME280;59577;52.122;5.406;2023-03-01T09:57:45;103016.78;;;13.53;35.02
71735;BME280;59577;52.122;5.406;2023-03-01T10:03:16;103036.00;;;13.57;34.58
71735;BME280;59577;52.122;5.406;2023-03-01T10:06:04;103034.50;;;13.42;35.77
71735;BME280;59577;52.122;5.406;2023-03-01T10:08:55;103027.22;;;12.80;35.50
71735;BME280;59577;52.122;5.406;2023-03-01T10:11:26;103025.28;;;12.18;35.98
71735;BME280;59577;52.122;5.406;2023-03-01T10:13:59;103030.44;;;12.06;36.38
71735;BME280;59577;52.122;5.406;2023-03-01T10:16:48;103028.03;;;12.04;37.19
71735;BME280;59577;52.122;5.406;2023-03-01T10:19:40;103030.28;;;12.25;36.71
71735;BME280;59577;52.122;5.406;2023-03-01T10:22:16;103031.25;;;11.56;36.78
71735;BME280;59577;52.122;5.406;2023-03-01T10:24:44;103023.47;;;11.26;37.31
71735;BME280;59577;52.122;5.406;2023-03-01T10:27:22;103018.63;;;11.51;37.07
71735;BME280;59577;52.122;5.406;2023-03-01T10:32:47;103010.59;;;10.63;38.47
71735;BME280;59577;52.122;5.406;2023-03-01T10:35:23;103020.50;;;10.34;39.16
71735;BME280;59577;52.122;5.406;2023-03-01T10:38:03;103014.72;;;10.88;39.69
71735;BME280;59577;52.122;5.406;2023-03-01T10:40:31;103010.41;;;10.87;38.42
71735;BME280;59577;52.122;5.406;2023-03-01T10:43:01;102996.94;;;10.02;39.47
71735;BME280;59577;52.122;5.406;2023-03-01T10:48:23;102997.78;;;10.16;38.30
71735;BME280;59577;52.122;5.406;2023-03-01T10:53:38;102984.59;;;8.91;39.40
71735;BME280;59577;52.122;5.406;2023-03-01T10:56:09;102991.66;;;9.35;40.61
71735;BME280;59577;52.122;5.406;2023-03-01T10:59:00;102972.88;;;10.01;38.80
71735;BME280;59577;52.122;5.406;2023-03-01T11:01:29;102972.69;;;9.59;38.40
71735;BME280;59577;52.122;5.406;2023-03-01T11:06:36;102953.22;;;10.61;38.49
71735;BME280;59577;52.122;5.406;2023-03-01T11:09:20;102957.69;;;10.51;38.41
71735;BME280;59577;52.122;5.406;2023-03-01T11:11:55;102961.28;;;9.81;38.56
71735;BME280;59577;52.122;5.406;2023-03-01T11:14:27;102950.97;;;9.64;38.83
71735;BME280;59577;52.122;5.406;2023-03-01T11:17:05;102951.75;;;9.65;39.13
71735;BME280;59577;52.122;5.406;2023-03-01T11:19:32;102950.06;;;9.50;40.26
71735;BME280;59577;52.122;5.406;2023-03-01T11:24:41;102930.47;;;9.96;41.33
71735;BME280;59577;52.122;5.406;2023-03-01T11:29:52;102931.03;;;10.26;39.05
71735;BME280;59577;52.122;5.406;2023-03-01T11:32:24;102931.63;;;10.97;40.00
71735;BME280;59577;52.122;5.406;2023-03-01T11:35:02;102931.47;;;11.66;38.02
71735;BME280;59577;52.122;5.406;2023-03-01T11:40:25;102928.00;;;12.43;35.28
71735;BME280;59577;52.122;5.406;2023-03-01T11:48:48;102937.72;;;12.12;34.97
71735;BME280;59577;52.122;5.406;2023-03-01T11:51:25;102930.19;;;12.09;35.23
71735;BME280;59577;52.122;5.406;2023-03-01T11:54:29;102930.31;;;11.81;35.32
71735;BME280;59577;52.122;5.406;2023-03-01T11:59:39;102917.06;;;12.25;34.03
71735;BME280;59577;52.122;5.406;2023-03-01T12:02:21;102911.44;;;11.76;33.42
71735;BME280;59577;52.122;5.406;2023-03-01T12:10:20;102908.28;;;9.80;36.45
71735;BME280;59577;52.122;5.406;2023-03-01T12:26:06;102910.69;;;8.28;39.67
71735;BME280;59577;52.122;5.406;2023-03-01T12:51:02;102885.22;;;7.81;40.56
71735;BME280;59577;52.122;5.406;2023-03-01T12:53:44;102872.16;;;7.59;40.76
71735;BME280;59577;52.122;5.406;2023-03-01T12:56:15;102882.22;;;7.48;41.49
71735;BME280;59577;52.122;5.406;2023-03-01T12:58:55;102873.94;;;7.34;41.79
71735;BME280;59577;52.122;5.406;2023-03-01T13:01:31;102867.28;;;7.21;42.22
71735;BME280;59577;52.122;5.406;2023-03-01T13:10:32;102836.03;;;7.25;42.17
71735;BME280;59577;52.122;5.406;2023-03-01T13:17:59;102840.91;;;7.18;42.01
71735;BME280;59577;52.122;5.406;2023-03-01T13:23:47;102838.06;;;6.99;42.41
71735;BME280;59577;52.122;5.406;2023-03-01T13:28:46;102829.44;;;6.97;41.97
71735;BME280;59577;52.122;5.406;2023-03-01T13:44:35;102798.84;;;6.83;42.52
71735;BME280;59577;52.122;5.406;2023-03-01T13:49:50;102796.03;;;7.03;43.57
71735;BME280;59577;52.122;5.406;2023-03-01T13:52:40;102798.97;;;7.07;42.59
71735;BME280;59577;52.122;5.406;2023-03-01T13:55:16;102791.97;;;7.06;43.12
71735;BME280;59577;52.122;5.406;2023-03-01T13:57:49;102784.91;;;7.15;42.91
71735;BME280;59577;52.122;5.406;2023-03-01T14:00:33;102783.75;;;7.26;42.71
71735;BME280;59577;52.122;5.406;2023-03-01T14:03:08;102776.47;;;7.32;42.64
71735;BME280;59577;52.122;5.406;2023-03-01T14:05:35;102774.34;;;7.24;43.05
71735;BME280;59577;52.122;5.406;2023-03-01T14:08:04;102769.22;;;7.27;42.90
71735;BME280;59577;52.122;5.406;2023-03-01T14:10:49;102771.69;;;7.19;42.60
71735;BME280;59577;52.122;5.406;2023-03-01T14:21:39;102746.81;;;7.32;42.95
71735;BME280;59577;52.122;5.406;2023-03-01T14:24:16;102743.53;;;7.35;42.81
71735;BME280;59577;52.122;5.406;2023-03-01T14:26:43;102741.31;;;7.42;42.34
71735;BME280;59577;52.122;5.406;2023-03-01T14:29:36;102733.56;;;7.41;41.94
71735;BME280;59577;52.122;5.406;2023-03-01T14:32:30;102729.84;;;7.31;42.02
71735;BME280;59577;52.122;5.406;2023-03-01T14:34:58;102722.38;;;7.23;42.09
71735;BME280;59577;52.122;5.406;2023-03-01T14:37:29;102717.56;;;7.20;42.15
71735;BME280;59577;52.122;5.406;2023-03-01T14:39:57;102708.81;;;7.33;42.45
71735;BME280;59577;52.122;5.406;2023-03-01T14:42:28;102707.72;;;7.34;42.05
71735;BME280;59577;52.122;5.406;2023-03-01T14:44:57;102707.25;;;7.27;42.10
71735;BME280;59577;52.122;5.406;2023-03-01T14:49:56;102711.38;;;7.14;42.10
71735;BME280;59577;52.122;5.406;2023-03-01T14:52:30;102705.44;;;7.18;42.49
71735;BME280;59577;52.122;5.406;2023-03-01T14:54:58;102711.66;;;7.18;42.78
71735;BME280;59577;52.122;5.406;2023-03-01T14:57:26;102711.66;;;7.18;42.65
71735;BME280;59577;52.122;5.406;2023-03-01T14:59:58;102712.97;;;7.21;43.53
71735;BME280;59577;52.122;5.406;2023-03-01T15:02:28;102714.63;;;7.17;43.13
71735;BME280;59577;52.122;5.406;2023-03-01T15:05:07;102714.66;;;7.11;43.21
71735;BME280;59577;52.122;5.406;2023-03-01T15:07:38;102712.81;;;7.07;43.36
71735;BME280;59577;52.122;5.406;2023-03-01T15:10:07;102707.94;;;7.09;43.27
71735;BME280;59577;52.122;5.406;2023-03-01T15:12:41;102699.03;;;7.13;43.46
71735;BME280;59577;52.122;5.406;2023-03-01T15:20:45;102698.81;;;7.05;42.86
71735;BME280;59577;52.122;5.406;2023-03-01T15:23:23;102691.31;;;7.02;43.22
71735;BME280;59577;52.122;5.406;2023-03-01T15:25:52;102691.81;;;7.04;43.26
71735;BME280;59577;52.122;5.406;2023-03-01T15:28:30;102682.16;;;7.03;42.42